sensor_id;sensor_type;location;lat;lon;timestamp;temperature;humidity
28075;DHT22;15385;51.088;6.572;2022-08-20T00:02:10;22.70;99.90
28075;DHT22;15385;51.088;6.572;2022-08-20T00:04:41;22.70;99.90
28075;DHT22;15385;51.088;6.572;2022-08-20T00:07:13;22.50;99.90
28075;DHT22;15385;51.088;6.572;2022-08-20T00:09:44;22.60;99.90
28075;DHT22;15385;51.088;6.572;2022-08-20T00:12:15;22.70;99.90
28075;DHT22;15385;51.088;6.572;2022-08-20T00:14:46;22.70;99.90
28075;DHT22;15385;51.088;6.572;2022-08-20T00:17:17;22.70;99.90
28075;DHT22;15385;51.088;6.572;2022-08-20T00:19:47;22.40;99.90
28075;DHT22;15385;51.088;6.572;2022-08-20T00:22:18;22.40;99.90
28075;DHT22;15385;51.088;6.572;2022-08-20T00:24:48;22.40;99.90
28075;DHT22;15385;51.088;6.572;2022-08-20T00:27:19;22.30;99.90
28075;DHT22;15385;51.088;6.572;2022-08-20T00:29:50;22.20;99.90
28075;DHT22;15385;51.088;6.572;2022-08-20T00:32:21;22.00;99.90
28075;DHT22;15385;51.088;6.572;2022-08-20T00:34:51;22.10;99.90
28075;DHT22;15385;51.088;6.572;2022-08-20T00:37:22;22.30;99.90
28075;DHT22;15385;51.088;6.572;2022-08-20T00:39:53;22.40;99.90
28075;DHT22;15385;51.088;6.572;2022-08-20T00:42:24;22.50;99.90
28075;DHT22;15385;51.088;6.572;2022-08-20T00:44:54;22.60;99.90
28075;DHT22;15385;51.088;6.572;2022-08-20T00:47:25;22.60;99.90
28075;DHT22;15385;51.088;6.572;2022-08-20T00:49:57;22.60;99.90
28075;DHT22;15385;51.088;6.572;2022-08-20T00:52:27;22.60;99.90
28075;DHT22;15385;51.088;6.572;2022-08-20T00:55:01;22.60;99.90
28075;DHT22;15385;51.088;6.572;2022-08-20T00:57:53;22.50;99.90
28075;DHT22;15385;51.088;6.572;2022-08-20T01:00:30;22.40;99.90
28075;DHT22;15385;51.088;6.572;2022-08-20T01:03:01;22.30;99.90
28075;DHT22;15385;51.088;6.572;2022-08-20T01:05:33;22.40;99.90
28075;DHT22;15385;51.088;6.572;2022-08-20T01:08:05;22.40;99.90
28075;DHT22;15385;51.088;6.572;2022-08-20T01:10:39;22.50;99.90
28075;DHT22;15385;51.088;6.572;2022-08-20T01:13:15;22.50;99.90
28075;DHT22;15385;51.088;6.572;2022-08-20T01:15:49;22.50;99.90
28075;DHT22;15385;51.088;6.572;2022-08-20T01:18:25;22.50;99.90
28075;DHT22;15385;51.088;6.572;2022-08-20T01:21:00;22.60;99.90
28075;DHT22;15385;51.088;6.572;2022-08-20T01:26:13;22.60;99.90
28075;DHT22;15385;51.088;6.572;2022-08-20T01:29:02;22.60;99.90
28075;DHT22;15385;51.088;6.572;2022-08-20T01:31:36;22.60;99.90
28075;DHT22;15385;51.088;6.572;2022-08-20T01:34:10;22.40;99.90
28075;DHT22;15385;51.088;6.572;2022-08-20T01:39:21;22.60;99.90
28075;DHT22;15385;51.088;6.572;2022-08-20T01:44:52;22.50;99.90
28075;DHT22;15385;51.088;6.572;2022-08-20T01:47:29;22.50;99.90
28075;DHT22;15385;51.088;6.572;2022-08-20T01:50:07;22.50;99.90
28075;DHT22;15385;51.088;6.572;2022-08-20T01:53:50;22.60;99.90
28075;DHT22;15385;51.088;6.572;2022-08-20T01:55:49;22.70;99.90
28075;DHT22;15385;51.088;6.572;2022-08-20T01:58:20;22.70;99.90
28075;DHT22;15385;51.088;6.572;2022-08-20T02:00:50;22.70;99.90
28075;DHT22;15385;51.088;6.572;2022-08-20T02:03:21;22.70;99.90
28075;DHT22;15385;51.088;6.572;2022-08-20T02:05:52;22.60;99.90
28075;DHT22;15385;51.088;6.572;2022-08-20T02:08:23;22.70;99.90
28075;DHT22;15385;51.088;6.572;2022-08-20T02:10:54;22.60;99.90
28075;DHT22;15385;51.088;6.572;2022-08-20T02:13:27;22.60;99.90
28075;DHT22;15385;51.088;6.572;2022-08-20T02:15:58;22.70;99.90
28075;DHT22;15385;51.088;6.572;2022-08-20T02:18:29;22.70;99.90
28075;DHT22;15385;51.088;6.572;2022-08-20T02:21:00;22.70;99.90
28075;DHT22;15385;51.088;6.572;2022-08-20T02:23:30;22.80;99.90
28075;DHT22;15385;51.088;6.572;2022-08-20T02:26:01;22.50;99.90
28075;DHT22;15385;51.088;6.572;2022-08-20T02:28:32;22.60;99.90
28075;DHT22;15385;51.088;6.572;2022-08-20T02:31:02;22.60;99.90
28075;DHT22;15385;51.088;6.572;2022-08-20T02:33:37;22.60;99.90
28075;DHT22;15385;51.088;6.572;2022-08-20T02:36:08;22.50;99.90
28075;DHT22;15385;51.088;6.572;2022-08-20T02:38:41;22.50;99.90
28075;DHT22;15385;51.088;6.572;2022-08-20T02:41:12;22.50;99.90
28075;DHT22;15385;51.088;6.572;2022-08-20T02:43:43;22.50;99.90
28075;DHT22;15385;51.088;6.572;2022-08-20T02:46:14;22.50;99.90
28075;DHT22;15385;51.088;6.572;2022-08-20T02:48:44;22.50;99.90
28075;DHT22;15385;51.088;6.572;2022-08-20T02:51:15;22.50;99.90
28075;DHT22;15385;51.088;6.572;2022-08-20T02:53:46;22.50;99.90
28075;DHT22;15385;51.088;6.572;2022-08-20T02:56:17;22.50;99.90
28075;DHT22;15385;51.088;6.572;2022-08-20T02:58:48;22.50;99.90
28075;DHT22;15385;51.088;6.572;2022-08-20T03:01:19;22.50;99.90
28075;DHT22;15385;51.088;6.572;2022-08-20T03:03:49;22.50;99.90
28075;DHT22;15385;51.088;6.572;2022-08-20T03:06:20;22.50;99.90
28075;DHT22;15385;51.088;6.572;2022-08-20T03:08:51;22.60;99.90
28075;DHT22;15385;51.088;6.572;2022-08-20T03:11:22;22.60;99.90
28075;DHT22;15385;51.088;6.572;2022-08-20T03:13:55;22.50;99.90
28075;DHT22;15385;51.088;6.572;2022-08-20T03:16:26;22.40;99.90
28075;DHT22;15385;51.088;6.572;2022-08-20T03:18:57;22.40;99.90
28075;DHT22;15385;51.088;6.572;2022-08-20T03:21:27;22.40;99.90
28075;DHT22;15385;51.088;6.572;2022-08-20T03:23:58;22.30;99.90
28075;DHT22;15385;51.088;6.572;2022-08-20T03:26:29;22.20;99.90
28075;DHT22;15385;51.088;6.572;2022-08-20T03:29:00;22.10;99.90
28075;DHT22;15385;51.088;6.572;2022-08-20T03:31:31;22.10;99.90
28075;DHT22;15385;51.088;6.572;2022-08-20T03:34:01;22.20;99.90
28075;DHT22;15385;51.088;6.572;2022-08-20T03:36:32;22.20;99.90
28075;DHT22;15385;51.088;6.572;2022-08-20T03:39:05;22.30;99.90
28075;DHT22;15385;51.088;6.572;2022-08-20T03:41:36;22.20;99.90
28075;DHT22;15385;51.088;6.572;2022-08-20T03:44:08;22.30;99.90
28075;DHT22;15385;51.088;6.572;2022-08-20T03:46:39;22.20;99.90
28075;DHT22;15385;51.088;6.572;2022-08-20T03:49:13;22.20;99.90
28075;DHT22;15385;51.088;6.572;2022-08-20T03:51:44;22.10;99.90
28075;DHT22;15385;51.088;6.572;2022-08-20T03:54:14;22.10;99.90
28075;DHT22;15385;51.088;6.572;2022-08-20T03:56:45;22.10;99.90
28075;DHT22;15385;51.088;6.572;2022-08-20T03:59:15;22.10;99.90
28075;DHT22;15385;51.088;6.572;2022-08-20T04:01:46;22.10;99.90
28075;DHT22;15385;51.088;6.572;2022-08-20T04:04:17;22.10;99.90
28075;DHT22;15385;51.088;6.572;2022-08-20T04:06:47;22.00;99.90
28075;DHT22;15385;51.088;6.572;2022-08-20T04:09:18;22.00;99.90
28075;DHT22;15385;51.088;6.572;2022-08-20T04:11:49;21.80;99.90
28075;DHT22;15385;51.088;6.572;2022-08-20T04:14:19;21.50;99.90
28075;DHT22;15385;51.088;6.572;2022-08-20T04:16:50;21.70;99.90
28075;DHT22;15385;51.088;6.572;2022-08-20T04:19:20;21.80;99.90
28075;DHT22;15385;51.088;6.572;2022-08-20T04:21:51;21.60;99.90
28075;DHT22;15385;51.088;6.572;2022-08-20T04:24:22;21.50;99.90
28075;DHT22;15385;51.088;6.572;2022-08-20T04:26:53;21.50;99.90
28075;DHT22;15385;51.088;6.572;2022-08-20T04:29:24;21.40;99.90
28075;DHT22;15385;51.088;6.572;2022-08-20T04:31:55;21.50;99.90
28075;DHT22;15385;51.088;6.572;2022-08-20T04:34:26;21.50;99.90
28075;DHT22;15385;51.088;6.572;2022-08-20T04:36:57;21.20;99.90
28075;DHT22;15385;51.088;6.572;2022-08-20T04:39:28;21.30;99.90
28075;DHT22;15385;51.088;6.572;2022-08-20T04:41:59;21.30;99.90
28075;DHT22;15385;51.088;6.572;2022-08-20T04:44:29;21.30;99.90
28075;DHT22;15385;51.088;6.572;2022-08-20T04:47:00;21.30;99.90
28075;DHT22;15385;51.088;6.572;2022-08-20T04:49:31;21.40;99.90
28075;DHT22;15385;51.088;6.572;2022-08-20T04:52:02;21.40;99.90
28075;DHT22;15385;51.088;6.572;2022-08-20T04:54:33;21.30;99.90
28075;DHT22;15385;51.088;6.572;2022-08-20T04:57:03;21.30;99.90
28075;DHT22;15385;51.088;6.572;2022-08-20T04:59:34;21.40;99.90
28075;DHT22;15385;51.088;6.572;2022-08-20T05:02:05;21.40;99.90
28075;DHT22;15385;51.088;6.572;2022-08-20T05:04:35;21.40;99.90
28075;DHT22;15385;51.088;6.572;2022-08-20T05:07:10;21.40;99.90
28075;DHT22;15385;51.088;6.572;2022-08-20T05:09:42;21.50;99.90
28075;DHT22;15385;51.088;6.572;2022-08-20T05:12:12;21.50;99.90
28075;DHT22;15385;51.088;6.572;2022-08-20T05:14:45;21.60;99.90
28075;DHT22;15385;51.088;6.572;2022-08-20T05:17:16;21.70;99.90
28075;DHT22;15385;51.088;6.572;2022-08-20T05:19:47;21.60;99.90
28075;DHT22;15385;51.088;6.572;2022-08-20T05:22:20;21.50;99.90
28075;DHT22;15385;51.088;6.572;2022-08-20T05:24:52;21.40;99.90
28075;DHT22;15385;51.088;6.572;2022-08-20T05:27:23;21.50;99.90
28075;DHT22;15385;51.088;6.572;2022-08-20T05:30:08;21.40;99.90
28075;DHT22;15385;51.088;6.572;2022-08-20T05:32:39;21.50;99.90
28075;DHT22;15385;51.088;6.572;2022-08-20T05:35:10;21.20;99.90
28075;DHT22;15385;51.088;6.572;2022-08-20T05:37:41;21.20;99.90
28075;DHT22;15385;51.088;6.572;2022-08-20T05:40:15;21.30;99.90
28075;DHT22;15385;51.088;6.572;2022-08-20T05:42:46;21.30;99.90
28075;DHT22;15385;51.088;6.572;2022-08-20T05:45:17;21.30;99.90
28075;DHT22;15385;51.088;6.572;2022-08-20T05:47:48;21.20;99.90
28075;DHT22;15385;51.088;6.572;2022-08-20T05:50:18;21.20;99.90
28075;DHT22;15385;51.088;6.572;2022-08-20T05:52:49;21.10;99.90
28075;DHT22;15385;51.088;6.572;2022-08-20T05:55:20;21.00;99.90
28075;DHT22;15385;51.088;6.572;2022-08-20T05:57:58;21.00;99.90
28075;DHT22;15385;51.088;6.572;2022-08-20T06:00:29;21.00;99.90
28075;DHT22;15385;51.088;6.572;2022-08-20T06:03:00;20.90;99.90
28075;DHT22;15385;51.088;6.572;2022-08-20T06:05:49;21.00;99.90
28075;DHT22;15385;51.088;6.572;2022-08-20T06:08:20;21.20;99.90
28075;DHT22;15385;51.088;6.572;2022-08-20T06:10:50;21.30;99.90
28075;DHT22;15385;51.088;6.572;2022-08-20T06:13:21;21.30;99.90
28075;DHT22;15385;51.088;6.572;2022-08-20T06:15:52;21.30;99.90
28075;DHT22;15385;51.088;6.572;2022-08-20T06:18:23;21.20;99.90
28075;DHT22;15385;51.088;6.572;2022-08-20T06:20:55;21.20;99.90
28075;DHT22;15385;51.088;6.572;2022-08-20T06:23:26;21.30;99.90
28075;DHT22;15385;51.088;6.572;2022-08-20T06:25:56;21.40;99.90
28075;DHT22;15385;51.088;6.572;2022-08-20T06:28:27;21.40;99.90
28075;DHT22;15385;51.088;6.572;2022-08-20T06:30:58;21.50;99.90
28075;DHT22;15385;51.088;6.572;2022-08-20T06:33:28;21.50;99.90
28075;DHT22;15385;51.088;6.572;2022-08-20T06:35:59;21.40;99.90
28075;DHT22;15385;51.088;6.572;2022-08-20T06:38:30;21.40;99.90
28075;DHT22;15385;51.088;6.572;2022-08-20T06:41:02;21.40;99.90
28075;DHT22;15385;51.088;6.572;2022-08-20T06:43:32;21.40;99.90
28075;DHT22;15385;51.088;6.572;2022-08-20T06:46:03;21.30;99.90
28075;DHT22;15385;51.088;6.572;2022-08-20T06:48:36;21.30;99.90
28075;DHT22;15385;51.088;6.572;2022-08-20T06:51:07;21.10;99.90
28075;DHT22;15385;51.088;6.572;2022-08-20T06:53:39;21.20;99.90
28075;DHT22;15385;51.088;6.572;2022-08-20T06:56:09;21.20;99.90
28075;DHT22;15385;51.088;6.572;2022-08-20T06:58:40;21.10;99.90
28075;DHT22;15385;51.088;6.572;2022-08-20T07:01:12;20.90;99.90
28075;DHT22;15385;51.088;6.572;2022-08-20T07:03:44;20.80;99.90
28075;DHT22;15385;51.088;6.572;2022-08-20T07:06:15;20.80;99.90
28075;DHT22;15385;51.088;6.572;2022-08-20T07:08:46;21.00;99.90
28075;DHT22;15385;51.088;6.572;2022-08-20T07:11:17;20.80;99.90
28075;DHT22;15385;51.088;6.572;2022-08-20T07:13:47;20.80;99.90
28075;DHT22;15385;51.088;6.572;2022-08-20T07:16:18;20.90;99.90
28075;DHT22;15385;51.088;6.572;2022-08-20T07:18:49;20.90;99.90
28075;DHT22;15385;51.088;6.572;2022-08-20T07:21:20;21.00;99.90
28075;DHT22;15385;51.088;6.572;2022-08-20T07:23:50;21.10;99.90
28075;DHT22;15385;51.088;6.572;2022-08-20T07:26:22;20.90;99.90
28075;DHT22;15385;51.088;6.572;2022-08-20T07:28:53;20.70;99.90
28075;DHT22;15385;51.088;6.572;2022-08-20T07:31:24;20.70;99.90
28075;DHT22;15385;51.088;6.572;2022-08-20T07:34:13;20.70;99.90
28075;DHT22;15385;51.088;6.572;2022-08-20T07:36:44;20.50;99.90
28075;DHT22;15385;51.088;6.572;2022-08-20T07:39:15;20.40;99.90
28075;DHT22;15385;51.088;6.572;2022-08-20T07:41:45;20.40;99.90
28075;DHT22;15385;51.088;6.572;2022-08-20T07:44:32;20.30;99.90
28075;DHT22;15385;51.088;6.572;2022-08-20T07:47:03;20.30;99.90
28075;DHT22;15385;51.088;6.572;2022-08-20T07:49:39;20.40;99.90
28075;DHT22;15385;51.088;6.572;2022-08-20T07:52:10;20.20;99.90
28075;DHT22;15385;51.088;6.572;2022-08-20T07:54:41;20.20;99.90
28075;DHT22;15385;51.088;6.572;2022-08-20T07:57:12;20.30;99.90
28075;DHT22;15385;51.088;6.572;2022-08-20T07:59:43;20.30;99.90
28075;DHT22;15385;51.088;6.572;2022-08-20T08:02:15;20.30;99.90
28075;DHT22;15385;51.088;6.572;2022-08-20T08:04:46;20.30;99.90
28075;DHT22;15385;51.088;6.572;2022-08-20T08:07:16;20.30;99.90
28075;DHT22;15385;51.088;6.572;2022-08-20T08:09:48;20.20;99.90
28075;DHT22;15385;51.088;6.572;2022-08-20T08:12:19;20.30;99.90
28075;DHT22;15385;51.088;6.572;2022-08-20T08:14:51;20.50;99.90
28075;DHT22;15385;51.088;6.572;2022-08-20T08:17:21;20.50;99.90
28075;DHT22;15385;51.088;6.572;2022-08-20T08:19:52;20.60;99.90
28075;DHT22;15385;51.088;6.572;2022-08-20T08:22:24;20.60;99.90
28075;DHT22;15385;51.088;6.572;2022-08-20T08:24:54;20.50;99.90
28075;DHT22;15385;51.088;6.572;2022-08-20T08:27:31;20.50;99.90
28075;DHT22;15385;51.088;6.572;2022-08-20T08:30:03;20.50;99.90
28075;DHT22;15385;51.088;6.572;2022-08-20T08:32:35;20.50;99.90
28075;DHT22;15385;51.088;6.572;2022-08-20T08:35:06;20.50;99.90
28075;DHT22;15385;51.088;6.572;2022-08-20T08:37:38;20.70;99.90
28075;DHT22;15385;51.088;6.572;2022-08-20T08:40:09;20.90;99.90
28075;DHT22;15385;51.088;6.572;2022-08-20T08:42:44;21.10;99.90
28075;DHT22;15385;51.088;6.572;2022-08-20T08:45:18;21.10;99.90
28075;DHT22;15385;51.088;6.572;2022-08-20T08:47:48;21.00;99.90
28075;DHT22;15385;51.088;6.572;2022-08-20T08:50:23;20.90;99.90
28075;DHT22;15385;51.088;6.572;2022-08-20T08:52:56;20.80;99.90
28075;DHT22;15385;51.088;6.572;2022-08-20T08:55:29;20.80;99.90
28075;DHT22;15385;51.088;6.572;2022-08-20T08:58:02;20.90;99.90
28075;DHT22;15385;51.088;6.572;2022-08-20T09:00:34;20.90;99.90
28075;DHT22;15385;51.088;6.572;2022-08-20T09:03:08;21.00;99.90
28075;DHT22;15385;51.088;6.572;2022-08-20T09:05:52;21.00;99.90
28075;DHT22;15385;51.088;6.572;2022-08-20T09:08:27;21.20;99.90
28075;DHT22;15385;51.088;6.572;2022-08-20T09:11:06;21.10;99.90
28075;DHT22;15385;51.088;6.572;2022-08-20T09:13:37;21.00;99.90
28075;DHT22;15385;51.088;6.572;2022-08-20T09:16:09;20.90;99.90
28075;DHT22;15385;51.088;6.572;2022-08-20T09:18:40;20.80;99.90
28075;DHT22;15385;51.088;6.572;2022-08-20T09:21:11;20.90;99.90
28075;DHT22;15385;51.088;6.572;2022-08-20T09:23:43;21.10;99.90
28075;DHT22;15385;51.088;6.572;2022-08-20T09:26:14;21.20;99.90
28075;DHT22;15385;51.088;6.572;2022-08-20T09:28:45;21.30;99.90
28075;DHT22;15385;51.088;6.572;2022-08-20T09:31:15;21.30;99.90
28075;DHT22;15385;51.088;6.572;2022-08-20T09:33:46;21.20;99.90
28075;DHT22;15385;51.088;6.572;2022-08-20T09:36:19;21.30;99.90
28075;DHT22;15385;51.088;6.572;2022-08-20T09:38:50;21.50;99.90
28075;DHT22;15385;51.088;6.572;2022-08-20T09:41:21;21.50;99.90
28075;DHT22;15385;51.088;6.572;2022-08-20T09:44:00;21.80;99.90
28075;DHT22;15385;51.088;6.572;2022-08-20T09:46:31;22.00;99.90
28075;DHT22;15385;51.088;6.572;2022-08-20T09:49:02;21.80;99.90
28075;DHT22;15385;51.088;6.572;2022-08-20T09:51:32;21.70;99.90
28075;DHT22;15385;51.088;6.572;2022-08-20T09:54:04;21.80;99.90
28075;DHT22;15385;51.088;6.572;2022-08-20T09:56:34;21.80;99.90
28075;DHT22;15385;51.088;6.572;2022-08-20T09:59:05;21.90;99.90
28075;DHT22;15385;51.088;6.572;2022-08-20T10:01:36;22.00;99.90
28075;DHT22;15385;51.088;6.572;2022-08-20T10:04:07;22.00;99.90
28075;DHT22;15385;51.088;6.572;2022-08-20T10:06:39;22.00;99.90
28075;DHT22;15385;51.088;6.572;2022-08-20T10:09:10;22.20;99.90
28075;DHT22;15385;51.088;6.572;2022-08-20T10:11:41;22.50;99.90
28075;DHT22;15385;51.088;6.572;2022-08-20T10:14:11;22.50;99.90
28075;DHT22;15385;51.088;6.572;2022-08-20T10:16:42;22.30;99.90
28075;DHT22;15385;51.088;6.572;2022-08-20T10:19:13;22.30;99.90
28075;DHT22;15385;51.088;6.572;2022-08-20T10:21:43;22.50;99.90
28075;DHT22;15385;51.088;6.572;2022-08-20T10:24:14;22.50;99.90
28075;DHT22;15385;51.088;6.572;2022-08-20T10:26:45;22.50;99.90
28075;DHT22;15385;51.088;6.572;2022-08-20T10:29:16;22.40;99.90
28075;DHT22;15385;51.088;6.572;2022-08-20T10:31:47;22.40;99.90
28075;DHT22;15385;51.088;6.572;2022-08-20T10:34:18;22.30;99.90
28075;DHT22;15385;51.088;6.572;2022-08-20T10:36:48;22.20;99.90
28075;DHT22;15385;51.088;6.572;2022-08-20T10:39:19;22.30;99.90
28075;DHT22;15385;51.088;6.572;2022-08-20T10:41:50;22.20;99.90
28075;DHT22;15385;51.088;6.572;2022-08-20T10:44:20;22.20;99.90
28075;DHT22;15385;51.088;6.572;2022-08-20T10:46:51;22.30;99.90
28075;DHT22;15385;51.088;6.572;2022-08-20T10:49:22;22.40;99.90
28075;DHT22;15385;51.088;6.572;2022-08-20T10:51:52;22.50;99.90
28075;DHT22;15385;51.088;6.572;2022-08-20T10:54:23;22.60;99.90
28075;DHT22;15385;51.088;6.572;2022-08-20T10:56:53;22.80;99.90
28075;DHT22;15385;51.088;6.572;2022-08-20T10:59:24;22.90;99.90
28075;DHT22;15385;51.088;6.572;2022-08-20T11:01:55;23.00;99.90
28075;DHT22;15385;51.088;6.572;2022-08-20T11:04:25;23.10;99.90
28075;DHT22;15385;51.088;6.572;2022-08-20T11:06:56;23.30;99.90
28075;DHT22;15385;51.088;6.572;2022-08-20T11:09:27;23.40;99.90
28075;DHT22;15385;51.088;6.572;2022-08-20T11:11:58;23.40;99.90
28075;DHT22;15385;51.088;6.572;2022-08-20T11:14:28;23.30;99.90
28075;DHT22;15385;51.088;6.572;2022-08-20T11:17:00;23.10;99.90
28075;DHT22;15385;51.088;6.572;2022-08-20T11:19:31;23.00;99.90
28075;DHT22;15385;51.088;6.572;2022-08-20T11:22:02;23.20;99.90
28075;DHT22;15385;51.088;6.572;2022-08-20T11:24:33;23.20;99.90
28075;DHT22;15385;51.088;6.572;2022-08-20T11:27:05;23.30;99.90
28075;DHT22;15385;51.088;6.572;2022-08-20T11:29:37;23.40;99.90
28075;DHT22;15385;51.088;6.572;2022-08-20T11:32:08;23.70;99.90
28075;DHT22;15385;51.088;6.572;2022-08-20T11:34:39;24.10;99.90
28075;DHT22;15385;51.088;6.572;2022-08-20T11:37:11;24.50;99.90
28075;DHT22;15385;51.088;6.572;2022-08-20T11:39:43;24.60;99.90
28075;DHT22;15385;51.088;6.572;2022-08-20T11:42:13;25.00;99.90
28075;DHT22;15385;51.088;6.572;2022-08-20T11:44:44;25.50;99.90
28075;DHT22;15385;51.088;6.572;2022-08-20T11:47:27;26.00;99.90
28075;DHT22;15385;51.088;6.572;2022-08-20T11:50:04;26.50;99.90
28075;DHT22;15385;51.088;6.572;2022-08-20T11:52:35;26.50;99.90
28075;DHT22;15385;51.088;6.572;2022-08-20T11:55:08;26.70;99.90
28075;DHT22;15385;51.088;6.572;2022-08-20T11:57:44;26.90;99.90
28075;DHT22;15385;51.088;6.572;2022-08-20T12:00:20;26.40;99.90
28075;DHT22;15385;51.088;6.572;2022-08-20T12:02:53;26.40;99.90
28075;DHT22;15385;51.088;6.572;2022-08-20T12:05:23;26.30;99.90
28075;DHT22;15385;51.088;6.572;2022-08-20T12:07:59;26.30;99.90
28075;DHT22;15385;51.088;6.572;2022-08-20T12:10:30;26.10;99.90
28075;DHT22;15385;51.088;6.572;2022-08-20T12:13:01;26.00;99.90
28075;DHT22;15385;51.088;6.572;2022-08-20T12:15:36;26.30;99.90
28075;DHT22;15385;51.088;6.572;2022-08-20T12:18:07;26.40;99.90
28075;DHT22;15385;51.088;6.572;2022-08-20T12:20:38;26.50;99.90
28075;DHT22;15385;51.088;6.572;2022-08-20T12:23:14;26.30;99.90
28075;DHT22;15385;51.088;6.572;2022-08-20T12:25:45;26.30;99.90
28075;DHT22;15385;51.088;6.572;2022-08-20T12:28:16;26.70;99.90
28075;DHT22;15385;51.088;6.572;2022-08-20T12:30:46;27.00;99.90
28075;DHT22;15385;51.088;6.572;2022-08-20T12:33:17;27.20;99.90
28075;DHT22;15385;51.088;6.572;2022-08-20T12:35:48;27.40;99.90
28075;DHT22;15385;51.088;6.572;2022-08-20T12:38:21;27.50;99.90
28075;DHT22;15385;51.088;6.572;2022-08-20T12:40:52;27.20;99.90
28075;DHT22;15385;51.088;6.572;2022-08-20T12:43:22;27.30;99.90
28075;DHT22;15385;51.088;6.572;2022-08-20T12:45:53;27.90;99.90
28075;DHT22;15385;51.088;6.572;2022-08-20T12:48:24;28.00;99.90
28075;DHT22;15385;51.088;6.572;2022-08-20T12:50:54;28.20;99.90
28075;DHT22;15385;51.088;6.572;2022-08-20T12:53:25;28.30;99.90
28075;DHT22;15385;51.088;6.572;2022-08-20T12:55:56;27.90;99.90
28075;DHT22;15385;51.088;6.572;2022-08-20T12:58:27;28.00;99.90
28075;DHT22;15385;51.088;6.572;2022-08-20T13:00:57;28.20;99.90
28075;DHT22;15385;51.088;6.572;2022-08-20T13:03:28;28.40;99.90
28075;DHT22;15385;51.088;6.572;2022-08-20T13:06:00;28.00;99.90
28075;DHT22;15385;51.088;6.572;2022-08-20T13:08:30;27.80;99.90
28075;DHT22;15385;51.088;6.572;2022-08-20T13:11:01;27.60;99.90
28075;DHT22;15385;51.088;6.572;2022-08-20T13:13:32;27.60;99.90
28075;DHT22;15385;51.088;6.572;2022-08-20T13:16:02;27.70;99.90
28075;DHT22;15385;51.088;6.572;2022-08-20T13:18:33;28.10;99.90
28075;DHT22;15385;51.088;6.572;2022-08-20T13:21:04;28.50;99.90
28075;DHT22;15385;51.088;6.572;2022-08-20T13:23:35;28.20;99.90
28075;DHT22;15385;51.088;6.572;2022-08-20T13:26:06;27.90;99.90
28075;DHT22;15385;51.088;6.572;2022-08-20T13:28:36;27.90;99.90
28075;DHT22;15385;51.088;6.572;2022-08-20T13:31:07;27.80;99.90
28075;DHT22;15385;51.088;6.572;2022-08-20T13:33:37;27.70;99.90
28075;DHT22;15385;51.088;6.572;2022-08-20T13:36:08;27.70;99.90
28075;DHT22;15385;51.088;6.572;2022-08-20T13:38:39;27.80;99.90
28075;DHT22;15385;51.088;6.572;2022-08-20T13:41:09;27.60;99.90
28075;DHT22;15385;51.088;6.572;2022-08-20T13:43:40;27.70;99.90
28075;DHT22;15385;51.088;6.572;2022-08-20T13:46:11;27.70;99.90
28075;DHT22;15385;51.088;6.572;2022-08-20T13:48:42;28.00;99.90
28075;DHT22;15385;51.088;6.572;2022-08-20T13:51:13;28.30;99.90
28075;DHT22;15385;51.088;6.572;2022-08-20T13:53:43;28.40;99.90
28075;DHT22;15385;51.088;6.572;2022-08-20T13:56:14;28.10;99.90
28075;DHT22;15385;51.088;6.572;2022-08-20T13:58:45;28.20;99.90
28075;DHT22;15385;51.088;6.572;2022-08-20T14:01:15;28.40;99.90
28075;DHT22;15385;51.088;6.572;2022-08-20T14:03:46;28.40;99.90
28075;DHT22;15385;51.088;6.572;2022-08-20T14:06:17;28.50;99.80
28075;DHT22;15385;51.088;6.572;2022-08-20T14:08:47;28.20;99.50
28075;DHT22;15385;51.088;6.572;2022-08-20T14:11:18;28.20;99.90
28075;DHT22;15385;51.088;6.572;2022-08-20T14:13:49;28.50;99.90
28075;DHT22;15385;51.088;6.572;2022-08-20T14:16:19;28.70;99.90
28075;DHT22;15385;51.088;6.572;2022-08-20T14:18:51;28.80;99.90
28075;DHT22;15385;51.088;6.572;2022-08-20T14:21:21;28.90;99.90
28075;DHT22;15385;51.088;6.572;2022-08-20T14:23:53;28.90;99.80
28075;DHT22;15385;51.088;6.572;2022-08-20T14:26:24;29.10;99.90
28075;DHT22;15385;51.088;6.572;2022-08-20T14:28:54;29.20;99.90
28075;DHT22;15385;51.088;6.572;2022-08-20T14:31:25;29.30;99.20
28075;DHT22;15385;51.088;6.572;2022-08-20T14:33:56;29.30;98.80
28075;DHT22;15385;51.088;6.572;2022-08-20T14:36:26;29.10;96.80
28075;DHT22;15385;51.088;6.572;2022-08-20T14:38:57;29.00;98.30
28075;DHT22;15385;51.088;6.572;2022-08-20T14:41:27;29.20;99.30
28075;DHT22;15385;51.088;6.572;2022-08-20T14:43:58;29.40;99.50
28075;DHT22;15385;51.088;6.572;2022-08-20T14:46:32;29.40;97.30
28075;DHT22;15385;51.088;6.572;2022-08-20T14:49:02;29.10;98.00
28075;DHT22;15385;51.088;6.572;2022-08-20T14:51:36;29.00;98.60
28075;DHT22;15385;51.088;6.572;2022-08-20T14:54:08;29.10;98.90
28075;DHT22;15385;51.088;6.572;2022-08-20T14:56:38;29.40;98.70
28075;DHT22;15385;51.088;6.572;2022-08-20T14:59:09;29.50;98.30
28075;DHT22;15385;51.088;6.572;2022-08-20T15:01:40;29.60;97.00
28075;DHT22;15385;51.088;6.572;2022-08-20T15:04:10;29.00;97.80
28075;DHT22;15385;51.088;6.572;2022-08-20T15:06:41;29.20;99.20
28075;DHT22;15385;51.088;6.572;2022-08-20T15:09:11;29.70;99.40
28075;DHT22;15385;51.088;6.572;2022-08-20T15:11:42;30.20;98.30
28075;DHT22;15385;51.088;6.572;2022-08-20T15:14:13;30.20;97.40
28075;DHT22;15385;51.088;6.572;2022-08-20T15:16:43;30.20;95.60
28075;DHT22;15385;51.088;6.572;2022-08-20T15:19:14;29.80;95.40
28075;DHT22;15385;51.088;6.572;2022-08-20T15:21:45;29.80;95.30
28075;DHT22;15385;51.088;6.572;2022-08-20T15:24:15;29.60;94.90
28075;DHT22;15385;51.088;6.572;2022-08-20T15:26:46;29.70;95.50
28075;DHT22;15385;51.088;6.572;2022-08-20T15:29:17;29.30;94.00
28075;DHT22;15385;51.088;6.572;2022-08-20T15:31:48;29.00;94.10
28075;DHT22;15385;51.088;6.572;2022-08-20T15:34:18;28.90;93.20
28075;DHT22;15385;51.088;6.572;2022-08-20T15:36:49;28.80;93.20
28075;DHT22;15385;51.088;6.572;2022-08-20T15:39:19;28.70;92.70
28075;DHT22;15385;51.088;6.572;2022-08-20T15:41:50;28.80;93.50
28075;DHT22;15385;51.088;6.572;2022-08-20T15:44:20;28.90;93.10
28075;DHT22;15385;51.088;6.572;2022-08-20T15:46:51;28.90;92.40
28075;DHT22;15385;51.088;6.572;2022-08-20T15:49:22;28.90;92.90
28075;DHT22;15385;51.088;6.572;2022-08-20T15:51:53;28.90;92.30
28075;DHT22;15385;51.088;6.572;2022-08-20T15:54:26;28.60;92.60
28075;DHT22;15385;51.088;6.572;2022-08-20T16:00:36;28.30;94.20
28075;DHT22;15385;51.088;6.572;2022-08-20T16:09:00;28.00;93.60
28075;DHT22;15385;51.088;6.572;2022-08-20T16:11:58;27.60;94.00
28075;DHT22;15385;51.088;6.572;2022-08-20T16:14:35;27.50;95.70
28075;DHT22;15385;51.088;6.572;2022-08-20T16:17:21;27.80;95.90